MMOX/OAX METAR and TAF weather

Enter ICAO airport designator
Station Type Date Time Source
MMOX METAR 2022/01/18 01:48 UTC NOAA

MMOX 180148Z 11002KT 5SM BKN030 OVC120 15/13 A3024 RMK 8/62/


Station Type Date Time Source
MMOX Decoded METAR 2022/01/18 01:48 UTC NOAA

Oaxaca / Xoxocotlan, Mexico (MMOX) 16-58N 096-44W
Jan 17, 2022 - 08:48 PM EST / 2022.01.18 0148 UTC
Wind: from the ESE (110 degrees) at 2 MPH (2 KT):0
Visibility: 5 mile(s):0
Sky conditions: overcast
Temperature: 59 F (15 C)
Dew Point: 55 F (13 C)
Relative Humidity: 87%
Pressure (altimeter): 30.24 in. Hg (1024 hPa)
ob: MMOX 180148Z 11002KT 5SM BKN030 OVC120 15/13 A3024 RMK 8/62/
cycle: 2

Station Type Date Time Source
MMOX TAF 2022/01/18 06:27 UTC NOAA

TAF MMOX 180420Z 1806/1906 12005KT 5SM HZ BKN030 OVC070
FM181200 00000KT 3SM HZ OVC015
FM181600 34010KT 5SM HZ SCT020 BKN070
FM190300 33005KT 5SM HZ SCT030

Example: see airport list